PWSweather.com
Personal Weather Stations
Station Observations
RW002
Arlington, VA 22207

Arlington, VA 22207

Lat: 38.8955, Lon: -77.1443

Elevation: 390

Station Type: Davis Vantage Pro II

jp_angelone@msn.com

High Low Average
Temperature 44.5°F6.9°C 32.2°F0.1°C 38.0°F3.3°C
Dew Point 36.9°F2.7°C 20.5°F-6.4°C 24.3°F-4.3°C
Winds 13.0 mph 20.9 kmh Calm Calm 3.0 mph NW4.8 kmh NW
Wind Gusts 17.0 mph27.4 kmh -- 10.0 mph16.1 kmh
Humidity 76% 46% 58%
Pressure 30.36 in1028.1 mb 30.08 in1018.6 mb -
Precipitation 0.00 in0.0 mm - -
Hour Temp Dew Point Humidity Winds Wind Gusts Pressure Precip Precip Rate Daily Precip Total
12:02 AM 44.5°F6.9°C 36.7°F2.6°C 74% Calm Calm 12.0 mph19.3 kmh 30.08 in1018.6 mb 0.00 in0.0 mm 0.00 in0.0 mm 0.00 in0.0 mm
12:07 AM 44.3°F6.8°C 36.9°F2.7°C 75% 1.0 mph NNW1.6 kmh NNW 12.0 mph19.3 kmh 30.08 in1018.6 mb 0.00 in0.0 mm 0.00 in0.0 mm 0.00 in0.0 mm
12:12 AM 44.2°F6.8°C 36.8°F2.7°C 75% 4.0 mph N6.4 kmh N 12.0 mph19.3 kmh 30.08 in1018.6 mb 0.00 in0.0 mm 0.00 in0.0 mm 0.00 in0.0 mm
12:17 AM 44.1°F6.7°C 36.7°F2.6°C 75% 6.0 mph NNW9.7 kmh NNW 12.0 mph19.3 kmh 30.08 in1018.6 mb 0.00 in0.0 mm 0.00 in0.0 mm 0.00 in0.0 mm
12:22 AM 44.0°F6.7°C 36.6°F2.6°C 75% 12.0 mph NW19.3 kmh NW 12.0 mph19.3 kmh 30.08 in1018.6 mb 0.00 in0.0 mm 0.00 in0.0 mm 0.00 in0.0 mm
12:27 AM 43.9°F6.6°C 36.5°F2.5°C 75% 3.0 mph NNW4.8 kmh NNW 15.0 mph24.1 kmh 30.08 in1018.6 mb 0.00 in0.0 mm 0.00 in0.0 mm 0.00 in0.0 mm
12:32 AM 43.8°F6.6°C 36.7°F2.6°C 76% Calm Calm 15.0 mph24.1 kmh 30.08 in1018.6 mb 0.00 in0.0 mm 0.00 in0.0 mm 0.00 in0.0 mm
12:37 AM 43.6°F6.4°C 36.2°F2.3°C 75% 8.0 mph NW12.9 kmh NW 15.0 mph24.1 kmh 30.08 in1018.6 mb 0.00 in0.0 mm 0.00 in0.0 mm 0.00 in0.0 mm
12:42 AM 43.5°F6.4°C 36.1°F2.3°C 75% 3.0 mph N4.8 kmh N 15.0 mph24.1 kmh 30.08 in1018.6 mb 0.00 in0.0 mm 0.00 in0.0 mm 0.00 in0.0 mm
12:47 AM 43.4°F6.3°C 35.7°F2.1°C 74% Calm Calm 14.0 mph22.5 kmh 30.08 in1018.6 mb 0.00 in0.0 mm 0.00 in0.0 mm 0.00 in0.0 mm
12:52 AM 43.3°F6.3°C 35.6°F2.0°C 74% 1.0 mph N1.6 kmh N 14.0 mph22.5 kmh 30.08 in1018.6 mb 0.00 in0.0 mm 0.00 in0.0 mm 0.00 in0.0 mm
12:57 AM 43.1°F6.2°C 35.4°F1.9°C 74% 5.0 mph NW8.0 kmh NW 14.0 mph22.5 kmh 30.08 in1018.6 mb 0.00 in0.0 mm 0.00 in0.0 mm 0.00 in0.0 mm
01:02 AM 43.0°F6.1°C 35.3°F1.8°C 74% Calm Calm 14.0 mph22.5 kmh 30.09 in1019.0 mb 0.00 in0.0 mm 0.00 in0.0 mm 0.00 in0.0 mm
01:07 AM 42.9°F6.1°C 35.2°F1.8°C 74% 6.0 mph NNW9.7 kmh NNW 9.0 mph14.5 kmh 30.08 in1018.6 mb 0.00 in0.0 mm 0.00 in0.0 mm 0.00 in0.0 mm
01:12 AM 42.8°F6.0°C 35.8°F2.1°C 76% 7.0 mph NW11.3 kmh NW 16.0 mph25.7 kmh 30.08 in1018.6 mb 0.00 in0.0 mm 0.00 in0.0 mm 0.00 in0.0 mm
01:17 AM 42.8°F6.0°C 34.4°F1.3°C 72% 2.0 mph NNW3.2 kmh NNW 16.0 mph25.7 kmh 30.09 in1019.0 mb 0.00 in0.0 mm 0.00 in0.0 mm 0.00 in0.0 mm
01:22 AM 42.6°F5.9°C 34.2°F1.2°C 72% 7.0 mph WNW11.3 kmh WNW 16.0 mph25.7 kmh 30.10 in1019.3 mb 0.00 in0.0 mm 0.00 in0.0 mm 0.00 in0.0 mm
01:27 AM 42.4°F5.8°C 34.0°F1.1°C 72% 4.0 mph NW6.4 kmh NW 16.0 mph25.7 kmh 30.10 in1019.3 mb 0.00 in0.0 mm 0.00 in0.0 mm 0.00 in0.0 mm
01:32 AM 42.2°F5.7°C 33.8°F1.0°C 72% 6.0 mph NW9.7 kmh NW 11.0 mph17.7 kmh 30.10 in1019.3 mb 0.00 in0.0 mm 0.00 in0.0 mm 0.00 in0.0 mm
01:37 AM 42.0°F5.6°C 33.6°F0.9°C 72% 11.0 mph N17.7 kmh N 11.0 mph17.7 kmh 30.10 in1019.3 mb 0.00 in0.0 mm 0.00 in0.0 mm 0.00 in0.0 mm
01:42 AM 41.9°F5.5°C 33.5°F0.8°C 72% 8.0 mph NNW12.9 kmh NNW 12.0 mph19.3 kmh 30.10 in1019.3 mb 0.00 in0.0 mm 0.00 in0.0 mm 0.00 in0.0 mm
01:47 AM 41.7°F5.4°C 33.4°F0.8°C 72% 3.0 mph NNW4.8 kmh NNW 12.0 mph19.3 kmh 30.10 in1019.3 mb 0.00 in0.0 mm 0.00 in0.0 mm 0.00 in0.0 mm
01:52 AM 41.6°F5.3°C 33.3°F0.7°C 72% Calm Calm 12.0 mph19.3 kmh 30.10 in1019.3 mb 0.00 in0.0 mm 0.00 in0.0 mm 0.00 in0.0 mm
01:57 AM 41.4°F5.2°C 33.1°F0.6°C 72% 2.0 mph NW3.2 kmh NW 12.0 mph19.3 kmh 30.10 in1019.3 mb 0.00 in0.0 mm 0.00 in0.0 mm 0.00 in0.0 mm
02:02 AM 41.3°F5.2°C 33.3°F0.7°C 73% 1.0 mph NW1.6 kmh NW 9.0 mph14.5 kmh 30.10 in1019.3 mb 0.00 in0.0 mm 0.00 in0.0 mm 0.00 in0.0 mm
02:07 AM 41.1°F5.1°C 33.1°F0.6°C 73% 4.0 mph NW6.4 kmh NW 10.0 mph16.1 kmh 30.09 in1019.0 mb 0.00 in0.0 mm 0.00 in0.0 mm 0.00 in0.0 mm
02:12 AM 40.9°F4.9°C 32.9°F0.5°C 73% 2.0 mph NNW3.2 kmh NNW 5.0 mph8.0 kmh 30.09 in1019.0 mb 0.00 in0.0 mm 0.00 in0.0 mm 0.00 in0.0 mm
02:17 AM 40.7°F4.8°C 33.1°F0.6°C 74% 3.0 mph NNW4.8 kmh NNW 8.0 mph12.9 kmh 30.09 in1019.0 mb 0.00 in0.0 mm 0.00 in0.0 mm 0.00 in0.0 mm
02:22 AM 40.6°F4.8°C 33.0°F0.6°C 74% 3.0 mph NW4.8 kmh NW 8.0 mph12.9 kmh 30.09 in1019.0 mb 0.00 in0.0 mm 0.00 in0.0 mm 0.00 in0.0 mm
02:27 AM 40.5°F4.7°C 32.9°F0.5°C 74% 2.0 mph W3.2 kmh W 11.0 mph17.7 kmh 30.10 in1019.3 mb 0.00 in0.0 mm 0.00 in0.0 mm 0.00 in0.0 mm
02:32 AM 40.4°F4.7°C 32.8°F0.4°C 74% 2.0 mph NW3.2 kmh NW 11.0 mph17.7 kmh 30.10 in1019.3 mb 0.00 in0.0 mm 0.00 in0.0 mm 0.00 in0.0 mm
02:37 AM 40.3°F4.6°C 32.7°F0.4°C 74% 6.0 mph NW9.7 kmh NW 11.0 mph17.7 kmh 30.10 in1019.3 mb 0.00 in0.0 mm 0.00 in0.0 mm 0.00 in0.0 mm
02:42 AM 40.2°F4.6°C 32.6°F0.3°C 74% 2.0 mph NW3.2 kmh NW 11.0 mph17.7 kmh 30.10 in1019.3 mb 0.00 in0.0 mm 0.00 in0.0 mm 0.00 in0.0 mm
02:47 AM 40.2°F4.6°C 32.6°F0.3°C 74% 2.0 mph NNW3.2 kmh NNW 10.0 mph16.1 kmh 30.10 in1019.3 mb 0.00 in0.0 mm 0.00 in0.0 mm 0.00 in0.0 mm
02:52 AM 40.1°F4.5°C 32.5°F0.3°C 74% 2.0 mph NNW3.2 kmh NNW 11.0 mph17.7 kmh 30.10 in1019.3 mb 0.00 in0.0 mm 0.00 in0.0 mm 0.00 in0.0 mm
02:57 AM 40.1°F4.5°C 32.2°F0.1°C 73% 5.0 mph WNW8.0 kmh WNW 11.0 mph17.7 kmh 30.10 in1019.3 mb 0.00 in0.0 mm 0.00 in0.0 mm 0.00 in0.0 mm
03:02 AM 40.1°F4.5°C 31.8°F-0.1°C 72% Calm Calm 14.0 mph22.5 kmh 30.10 in1019.3 mb 0.00 in0.0 mm 0.00 in0.0 mm 0.00 in0.0 mm
03:07 AM 40.0°F4.4°C 31.7°F-0.2°C 72% 2.0 mph NNW3.2 kmh NNW 14.0 mph22.5 kmh 30.10 in1019.3 mb 0.00 in0.0 mm 0.00 in0.0 mm 0.00 in0.0 mm
03:12 AM 39.9°F4.4°C 31.6°F-0.2°C 72% 12.0 mph NNW19.3 kmh NNW 14.0 mph22.5 kmh 30.10 in1019.3 mb 0.00 in0.0 mm 0.00 in0.0 mm 0.00 in0.0 mm
03:17 AM 40.0°F4.4°C 31.7°F-0.2°C 72% 4.0 mph NW6.4 kmh NW 14.0 mph22.5 kmh 30.10 in1019.3 mb 0.00 in0.0 mm 0.00 in0.0 mm 0.00 in0.0 mm
03:22 AM 40.0°F4.4°C 31.7°F-0.2°C 72% 4.0 mph NW6.4 kmh NW 13.0 mph20.9 kmh 30.10 in1019.3 mb 0.00 in0.0 mm 0.00 in0.0 mm 0.00 in0.0 mm
03:27 AM 39.9°F4.4°C 31.6°F-0.2°C 72% 5.0 mph NNW8.0 kmh NNW 13.0 mph20.9 kmh 30.10 in1019.3 mb 0.00 in0.0 mm 0.00 in0.0 mm 0.00 in0.0 mm
03:32 AM 39.9°F4.4°C 31.3°F-0.4°C 71% 5.0 mph NNW8.0 kmh NNW 16.0 mph25.7 kmh 30.10 in1019.3 mb 0.00 in0.0 mm 0.00 in0.0 mm 0.00 in0.0 mm
03:37 AM 40.0°F4.4°C 30.7°F-0.7°C 69% 10.0 mph NNW16.1 kmh NNW 17.0 mph27.4 kmh 30.10 in1019.3 mb 0.00 in0.0 mm 0.00 in0.0 mm 0.00 in0.0 mm
03:42 AM 40.0°F4.4°C 30.7°F-0.7°C 69% 7.0 mph NNW11.3 kmh NNW 17.0 mph27.4 kmh 30.11 in1019.6 mb 0.00 in0.0 mm 0.00 in0.0 mm 0.00 in0.0 mm
03:47 AM 39.9°F4.4°C 30.6°F-0.8°C 69% Calm Calm 17.0 mph27.4 kmh 30.11 in1019.6 mb 0.00 in0.0 mm 0.00 in0.0 mm 0.00 in0.0 mm
03:52 AM 39.9°F4.4°C 30.2°F-1.0°C 68% 3.0 mph NNW4.8 kmh NNW 17.0 mph27.4 kmh 30.11 in1019.6 mb 0.00 in0.0 mm 0.00 in0.0 mm 0.00 in0.0 mm
03:57 AM 39.9°F4.4°C 30.2°F-1.0°C 68% 4.0 mph NNW6.4 kmh NNW 9.0 mph14.5 kmh 30.11 in1019.6 mb 0.00 in0.0 mm 0.00 in0.0 mm 0.00 in0.0 mm
04:02 AM 39.8°F4.3°C 29.8°F-1.2°C 67% Calm Calm 9.0 mph14.5 kmh 30.12 in1020.0 mb 0.00 in0.0 mm 0.00 in0.0 mm 0.00 in0.0 mm
04:07 AM 39.8°F4.3°C 29.0°F-1.7°C 65% 7.0 mph NW11.3 kmh NW 9.0 mph14.5 kmh 30.12 in1020.0 mb 0.00 in0.0 mm 0.00 in0.0 mm 0.00 in0.0 mm
04:12 AM 39.6°F4.2°C 28.1°F-2.2°C 63% 8.0 mph N12.9 kmh N 13.0 mph20.9 kmh 30.12 in1020.0 mb 0.00 in0.0 mm 0.00 in0.0 mm 0.00 in0.0 mm
04:17 AM 39.5°F4.2°C 27.6°F-2.4°C 62% 3.0 mph N4.8 kmh N 13.0 mph20.9 kmh 30.12 in1020.0 mb 0.00 in0.0 mm 0.00 in0.0 mm 0.00 in0.0 mm
04:22 AM 39.4°F4.1°C 27.5°F-2.5°C 62% 3.0 mph NNW4.8 kmh NNW 13.0 mph20.9 kmh 30.13 in1020.3 mb 0.00 in0.0 mm 0.00 in0.0 mm 0.00 in0.0 mm
04:27 AM 39.2°F4.0°C 26.9°F-2.8°C 61% 3.0 mph NNW4.8 kmh NNW 13.0 mph20.9 kmh 30.13 in1020.3 mb 0.00 in0.0 mm 0.00 in0.0 mm 0.00 in0.0 mm
04:32 AM 39.2°F4.0°C 26.9°F-2.8°C 61% 1.0 mph N1.6 kmh N 12.0 mph19.3 kmh 30.13 in1020.3 mb 0.00 in0.0 mm 0.00 in0.0 mm 0.00 in0.0 mm
04:37 AM 39.1°F3.9°C 26.4°F-3.1°C 60% 4.0 mph NW6.4 kmh NW 15.0 mph24.1 kmh 30.13 in1020.3 mb 0.00 in0.0 mm 0.00 in0.0 mm 0.00 in0.0 mm
04:42 AM 39.0°F3.9°C 26.3°F-3.2°C 60% 2.0 mph NNW3.2 kmh NNW 15.0 mph24.1 kmh 30.13 in1020.3 mb 0.00 in0.0 mm 0.00 in0.0 mm 0.00 in0.0 mm
04:47 AM 38.8°F3.8°C 26.1°F-3.3°C 60% 1.0 mph NW1.6 kmh NW 15.0 mph24.1 kmh 30.13 in1020.3 mb 0.00 in0.0 mm 0.00 in0.0 mm 0.00 in0.0 mm
04:52 AM 38.7°F3.7°C 26.0°F-3.3°C 60% 8.0 mph NNW12.9 kmh NNW 15.0 mph24.1 kmh 30.14 in1020.7 mb 0.00 in0.0 mm 0.00 in0.0 mm 0.00 in0.0 mm
04:57 AM 38.6°F3.7°C 25.9°F-3.4°C 60% 6.0 mph N9.7 kmh N 12.0 mph19.3 kmh 30.14 in1020.7 mb 0.00 in0.0 mm 0.00 in0.0 mm 0.00 in0.0 mm
05:02 AM 38.4°F3.6°C 25.7°F-3.5°C 60% 1.0 mph NNW1.6 kmh NNW 13.0 mph20.9 kmh 30.14 in1020.7 mb 0.00 in0.0 mm 0.00 in0.0 mm 0.00 in0.0 mm
05:07 AM 38.2°F3.4°C 26.0°F-3.3°C 61% Calm Calm 13.0 mph20.9 kmh 30.14 in1020.7 mb 0.00 in0.0 mm 0.00 in0.0 mm 0.00 in0.0 mm
05:12 AM 37.9°F3.3°C 25.7°F-3.5°C 61% 8.0 mph 12.9 kmh 13.0 mph20.9 kmh 30.15 in1021.0 mb 0.00 in0.0 mm 0.00 in0.0 mm 0.00 in0.0 mm
05:17 AM 37.8°F3.2°C 26.0°F-3.3°C 62% Calm Calm 13.0 mph20.9 kmh 30.15 in1021.0 mb 0.00 in0.0 mm 0.00 in0.0 mm 0.00 in0.0 mm
05:22 AM 37.7°F3.2°C 25.5°F-3.6°C 61% 10.0 mph NW16.1 kmh NW 16.0 mph25.7 kmh 30.16 in1021.3 mb 0.00 in0.0 mm 0.00 in0.0 mm 0.00 in0.0 mm
05:27 AM 37.6°F3.1°C 25.0°F-3.9°C 60% 9.0 mph WNW14.5 kmh WNW 16.0 mph25.7 kmh 30.16 in1021.3 mb 0.00 in0.0 mm 0.00 in0.0 mm 0.00 in0.0 mm
05:32 AM 37.4°F3.0°C 24.8°F-4.0°C 60% 3.0 mph NW4.8 kmh NW 16.0 mph25.7 kmh 30.16 in1021.3 mb 0.00 in0.0 mm 0.00 in0.0 mm 0.00 in0.0 mm
05:37 AM 37.2°F2.9°C 24.6°F-4.1°C 60% 5.0 mph NW8.0 kmh NW 16.0 mph25.7 kmh 30.16 in1021.3 mb 0.00 in0.0 mm 0.00 in0.0 mm 0.00 in0.0 mm
05:42 AM 37.1°F2.8°C 24.1°F-4.4°C 59% 11.0 mph WNW17.7 kmh WNW 16.0 mph25.7 kmh 30.17 in1021.7 mb 0.00 in0.0 mm 0.00 in0.0 mm 0.00 in0.0 mm
05:47 AM 37.0°F2.8°C 24.0°F-4.4°C 59% 9.0 mph NNW14.5 kmh NNW 16.0 mph25.7 kmh 30.17 in1021.7 mb 0.00 in0.0 mm 0.00 in0.0 mm 0.00 in0.0 mm
05:52 AM 37.0°F2.8°C 23.6°F-4.7°C 58% 5.0 mph NW8.0 kmh NW 16.0 mph25.7 kmh 30.17 in1021.7 mb 0.00 in0.0 mm 0.00 in0.0 mm 0.00 in0.0 mm
05:57 AM 37.0°F2.8°C 23.6°F-4.7°C 58% 4.0 mph NNW6.4 kmh NNW 16.0 mph25.7 kmh 30.17 in1021.7 mb 0.00 in0.0 mm 0.00 in0.0 mm 0.00 in0.0 mm
06:02 AM 36.9°F2.7°C 23.5°F-4.7°C 58% 1.0 mph NW1.6 kmh NW 13.0 mph20.9 kmh 30.18 in1022.0 mb 0.00 in0.0 mm 0.00 in0.0 mm 0.00 in0.0 mm
06:07 AM 36.8°F2.7°C 23.4°F-4.8°C 58% 4.0 mph NNW6.4 kmh NNW 13.0 mph20.9 kmh 30.18 in1022.0 mb 0.00 in0.0 mm 0.00 in0.0 mm 0.00 in0.0 mm
06:12 AM 36.7°F2.6°C 23.7°F-4.6°C 59% 2.0 mph NW3.2 kmh NW 8.0 mph12.9 kmh 30.18 in1022.0 mb 0.00 in0.0 mm 0.00 in0.0 mm 0.00 in0.0 mm
06:17 AM 36.5°F2.5°C 23.1°F-4.9°C 58% 3.0 mph N4.8 kmh N 9.0 mph14.5 kmh 30.18 in1022.0 mb 0.00 in0.0 mm 0.00 in0.0 mm 0.00 in0.0 mm
06:22 AM 36.4°F2.4°C 23.5°F-4.7°C 59% 3.0 mph NW4.8 kmh NW 9.0 mph14.5 kmh 30.18 in1022.0 mb 0.00 in0.0 mm 0.00 in0.0 mm 0.00 in0.0 mm
06:27 AM 36.1°F2.3°C 22.8°F-5.1°C 58% 4.0 mph NW6.4 kmh NW 11.0 mph17.7 kmh 30.18 in1022.0 mb 0.00 in0.0 mm 0.00 in0.0 mm 0.00 in0.0 mm
06:32 AM 35.9°F2.2°C 22.6°F-5.2°C 58% 8.0 mph NNW12.9 kmh NNW 12.0 mph19.3 kmh 30.18 in1022.0 mb 0.00 in0.0 mm 0.00 in0.0 mm 0.00 in0.0 mm
06:37 AM 35.7°F2.1°C 22.4°F-5.3°C 58% 9.0 mph NW14.5 kmh NW 12.0 mph19.3 kmh 30.19 in1022.4 mb 0.00 in0.0 mm 0.00 in0.0 mm 0.00 in0.0 mm
06:42 AM 35.6°F2.0°C 22.7°F-5.2°C 59% 5.0 mph NW8.0 kmh NW 12.0 mph19.3 kmh 30.19 in1022.4 mb 0.00 in0.0 mm 0.00 in0.0 mm 0.00 in0.0 mm
06:47 AM 35.5°F1.9°C 22.2°F-5.4°C 58% 6.0 mph SW9.7 kmh SW 12.0 mph19.3 kmh 30.19 in1022.4 mb 0.00 in0.0 mm 0.00 in0.0 mm 0.00 in0.0 mm
06:52 AM 35.4°F1.9°C 22.5°F-5.3°C 59% Calm Calm 12.0 mph19.3 kmh 30.19 in1022.4 mb 0.00 in0.0 mm 0.00 in0.0 mm 0.00 in0.0 mm
06:57 AM 35.3°F1.8°C 22.4°F-5.3°C 59% 3.0 mph NNW4.8 kmh NNW 12.0 mph19.3 kmh 30.20 in1022.7 mb 0.00 in0.0 mm 0.00 in0.0 mm 0.00 in0.0 mm
07:02 AM 35.3°F1.8°C 22.4°F-5.3°C 59% Calm Calm 13.0 mph20.9 kmh 30.20 in1022.7 mb 0.00 in0.0 mm 0.00 in0.0 mm 0.00 in0.0 mm
07:07 AM 35.3°F1.8°C 22.8°F-5.1°C 60% 4.0 mph NW6.4 kmh NW 6.0 mph9.7 kmh 30.20 in1022.7 mb 0.00 in0.0 mm 0.00 in0.0 mm 0.00 in0.0 mm
07:12 AM 35.2°F1.8°C 22.7°F-5.2°C 60% 3.0 mph NW4.8 kmh NW 9.0 mph14.5 kmh 30.20 in1022.7 mb 0.00 in0.0 mm 0.00 in0.0 mm 0.00 in0.0 mm
07:17 AM 35.3°F1.8°C 22.4°F-5.3°C 59% 5.0 mph N8.0 kmh N 9.0 mph14.5 kmh 30.21 in1023.0 mb 0.00 in0.0 mm 0.00 in0.0 mm 0.00 in0.0 mm
07:22 AM 35.2°F1.8°C 22.3°F-5.4°C 59% 1.0 mph NW1.6 kmh NW 13.0 mph20.9 kmh 30.21 in1023.0 mb 0.00 in0.0 mm 0.00 in0.0 mm 0.00 in0.0 mm
07:27 AM 35.3°F1.8°C 22.4°F-5.3°C 59% 6.0 mph NW9.7 kmh NW 13.0 mph20.9 kmh 30.21 in1023.0 mb 0.00 in0.0 mm 0.00 in0.0 mm 0.00 in0.0 mm
07:32 AM 35.5°F1.9°C 22.6°F-5.2°C 59% 5.0 mph NNW8.0 kmh NNW 14.0 mph22.5 kmh 30.21 in1023.0 mb 0.00 in0.0 mm 0.00 in0.0 mm 0.00 in0.0 mm
07:37 AM 35.6°F2.0°C 22.7°F-5.2°C 59% 8.0 mph N12.9 kmh N 14.0 mph22.5 kmh 30.21 in1023.0 mb 0.00 in0.0 mm 0.00 in0.0 mm 0.00 in0.0 mm
07:42 AM 35.8°F2.1°C 22.5°F-5.3°C 58% 4.0 mph NW6.4 kmh NW 14.0 mph22.5 kmh 30.22 in1023.4 mb 0.00 in0.0 mm 0.00 in0.0 mm 0.00 in0.0 mm
07:47 AM 35.9°F2.2°C 22.2°F-5.4°C 57% 8.0 mph NW12.9 kmh NW 15.0 mph24.1 kmh 30.22 in1023.4 mb 0.00 in0.0 mm 0.00 in0.0 mm 0.00 in0.0 mm
07:52 AM 36.0°F2.2°C 22.3°F-5.4°C 57% 3.0 mph NW4.8 kmh NW 15.0 mph24.1 kmh 30.23 in1023.7 mb 0.00 in0.0 mm 0.00 in0.0 mm 0.00 in0.0 mm
07:57 AM 36.1°F2.3°C 21.9°F-5.6°C 56% 7.0 mph N11.3 kmh N 15.0 mph24.1 kmh 30.22 in1023.4 mb 0.00 in0.0 mm 0.00 in0.0 mm 0.00 in0.0 mm
08:02 AM 36.1°F2.3°C 21.9°F-5.6°C 56% 5.0 mph N8.0 kmh N 16.0 mph25.7 kmh 30.23 in1023.7 mb 0.00 in0.0 mm 0.00 in0.0 mm 0.00 in0.0 mm
08:07 AM 36.2°F2.3°C 22.0°F-5.6°C 56% 9.0 mph NNW14.5 kmh NNW 16.0 mph25.7 kmh 30.23 in1023.7 mb 0.00 in0.0 mm 0.00 in0.0 mm 0.00 in0.0 mm
08:12 AM 36.3°F2.4°C 21.7°F-5.7°C 55% 11.0 mph NNW17.7 kmh NNW 16.0 mph25.7 kmh 30.23 in1023.7 mb 0.00 in0.0 mm 0.00 in0.0 mm 0.00 in0.0 mm
08:17 AM 36.4°F2.4°C 21.8°F-5.7°C 55% 4.0 mph NW6.4 kmh NW 16.0 mph25.7 kmh 30.23 in1023.7 mb 0.00 in0.0 mm 0.00 in0.0 mm 0.00 in0.0 mm
08:22 AM 36.5°F2.5°C 21.9°F-5.6°C 55% 9.0 mph NNW14.5 kmh NNW 16.0 mph25.7 kmh 30.24 in1024.0 mb 0.00 in0.0 mm 0.00 in0.0 mm 0.00 in0.0 mm
08:27 AM 36.6°F2.6°C 22.0°F-5.6°C 55% 8.0 mph N12.9 kmh N 16.0 mph25.7 kmh 30.24 in1024.0 mb 0.00 in0.0 mm 0.00 in0.0 mm 0.00 in0.0 mm
08:32 AM 36.8°F2.7°C 22.2°F-5.4°C 55% 3.0 mph NW4.8 kmh NW 16.0 mph25.7 kmh 30.25 in1024.4 mb 0.00 in0.0 mm 0.00 in0.0 mm 0.00 in0.0 mm
08:37 AM 36.8°F2.7°C 21.7°F-5.7°C 54% Calm Calm 16.0 mph25.7 kmh 30.25 in1024.4 mb 0.00 in0.0 mm 0.00 in0.0 mm 0.00 in0.0 mm
08:42 AM 36.6°F2.6°C 22.0°F-5.6°C 55% 8.0 mph NW12.9 kmh NW 14.0 mph22.5 kmh 30.25 in1024.4 mb 0.00 in0.0 mm 0.00 in0.0 mm 0.00 in0.0 mm
08:47 AM 36.4°F2.4°C 21.8°F-5.7°C 55% 9.0 mph NW14.5 kmh NW 17.0 mph27.4 kmh 30.25 in1024.4 mb 0.00 in0.0 mm 0.00 in0.0 mm 0.00 in0.0 mm
08:52 AM 36.4°F2.4°C 22.2°F-5.4°C 56% 5.0 mph N8.0 kmh N 17.0 mph27.4 kmh 30.25 in1024.4 mb 0.00 in0.0 mm 0.00 in0.0 mm 0.00 in0.0 mm
08:57 AM 36.6°F2.6°C 22.4°F-5.3°C 56% 1.0 mph NW1.6 kmh NW 17.0 mph27.4 kmh 30.25 in1024.4 mb 0.00 in0.0 mm 0.00 in0.0 mm 0.00 in0.0 mm
09:02 AM 36.9°F2.7°C 22.7°F-5.2°C 56% 5.0 mph NW8.0 kmh NW 17.0 mph27.4 kmh 30.25 in1024.4 mb 0.00 in0.0 mm 0.00 in0.0 mm 0.00 in0.0 mm
09:07 AM 37.1°F2.8°C 22.9°F-5.1°C 56% 3.0 mph NE4.8 kmh NE 16.0 mph25.7 kmh 30.25 in1024.4 mb 0.00 in0.0 mm 0.00 in0.0 mm 0.00 in0.0 mm
09:12 AM 37.0°F2.8°C 21.9°F-5.6°C 54% 8.0 mph NNW12.9 kmh NNW 16.0 mph25.7 kmh 30.25 in1024.4 mb 0.00 in0.0 mm 0.00 in0.0 mm 0.00 in0.0 mm
09:17 AM 37.3°F2.9°C 22.6°F-5.2°C 55% 1.0 mph NNW1.6 kmh NNW 12.0 mph19.3 kmh 30.25 in1024.4 mb 0.00 in0.0 mm 0.00 in0.0 mm 0.00 in0.0 mm
09:22 AM 37.6°F3.1°C 22.9°F-5.1°C 55% Calm Calm 12.0 mph19.3 kmh 30.25 in1024.4 mb 0.00 in0.0 mm 0.00 in0.0 mm 0.00 in0.0 mm
09:27 AM 37.8°F3.2°C 23.1°F-4.9°C 55% Calm Calm 10.0 mph16.1 kmh 30.25 in1024.4 mb 0.00 in0.0 mm 0.00 in0.0 mm 0.00 in0.0 mm
09:32 AM 37.9°F3.3°C 23.2°F-4.9°C 55% 12.0 mph N19.3 kmh N 12.0 mph19.3 kmh 30.26 in1024.7 mb 0.00 in0.0 mm 0.00 in0.0 mm 0.00 in0.0 mm
09:37 AM 37.6°F3.1°C 22.9°F-5.1°C 55% 9.0 mph N14.5 kmh N 17.0 mph27.4 kmh 30.26 in1024.7 mb 0.00 in0.0 mm 0.00 in0.0 mm 0.00 in0.0 mm
09:42 AM 37.3°F2.9°C 22.6°F-5.2°C 55% 2.0 mph NNW3.2 kmh NNW 17.0 mph27.4 kmh 30.26 in1024.7 mb 0.00 in0.0 mm 0.00 in0.0 mm 0.00 in0.0 mm
09:47 AM 37.2°F2.9°C 22.5°F-5.3°C 55% 7.0 mph WSW11.3 kmh WSW 17.0 mph27.4 kmh 30.26 in1024.7 mb 0.00 in0.0 mm 0.00 in0.0 mm 0.00 in0.0 mm
09:52 AM 37.8°F3.2°C 23.5°F-4.7°C 56% 1.0 mph NNW1.6 kmh NNW 17.0 mph27.4 kmh 30.26 in1024.7 mb 0.00 in0.0 mm 0.00 in0.0 mm 0.00 in0.0 mm
09:57 AM 38.1°F3.4°C 22.9°F-5.1°C 54% 5.0 mph NW8.0 kmh NW 13.0 mph20.9 kmh 30.26 in1024.7 mb 0.00 in0.0 mm 0.00 in0.0 mm 0.00 in0.0 mm
10:02 AM 37.9°F3.3°C 22.8°F-5.1°C 54% 5.0 mph W8.0 kmh W 13.0 mph20.9 kmh 30.26 in1024.7 mb 0.00 in0.0 mm 0.00 in0.0 mm 0.00 in0.0 mm
10:07 AM 38.0°F3.3°C 22.9°F-5.1°C 54% Calm Calm 14.0 mph22.5 kmh 30.26 in1024.7 mb 0.00 in0.0 mm 0.00 in0.0 mm 0.00 in0.0 mm
10:12 AM 38.5°F3.6°C 22.9°F-5.1°C 53% 6.0 mph NNW9.7 kmh NNW 15.0 mph24.1 kmh 30.27 in1025.1 mb 0.00 in0.0 mm 0.00 in0.0 mm 0.00 in0.0 mm
10:17 AM 37.8°F3.2°C 22.7°F-5.2°C 54% 9.0 mph WNW14.5 kmh WNW 15.0 mph24.1 kmh 30.27 in1025.1 mb 0.00 in0.0 mm 0.00 in0.0 mm 0.00 in0.0 mm
10:22 AM 37.8°F3.2°C 22.7°F-5.2°C 54% 2.0 mph NW3.2 kmh NW 15.0 mph24.1 kmh 30.27 in1025.1 mb 0.00 in0.0 mm 0.00 in0.0 mm 0.00 in0.0 mm
10:27 AM 38.6°F3.7°C 23.4°F-4.8°C 54% 2.0 mph W3.2 kmh W 15.0 mph24.1 kmh 30.26 in1024.7 mb 0.00 in0.0 mm 0.00 in0.0 mm 0.00 in0.0 mm
10:32 AM 38.6°F3.7°C 22.5°F-5.3°C 52% 9.0 mph NW14.5 kmh NW 12.0 mph19.3 kmh 30.26 in1024.7 mb 0.00 in0.0 mm 0.00 in0.0 mm 0.00 in0.0 mm
10:37 AM 37.7°F3.2°C 22.1°F-5.5°C 53% 3.0 mph NW4.8 kmh NW 13.0 mph20.9 kmh 30.26 in1024.7 mb 0.00 in0.0 mm 0.00 in0.0 mm 0.00 in0.0 mm
10:42 AM 37.8°F3.2°C 22.7°F-5.2°C 54% Calm Calm 13.0 mph20.9 kmh 30.26 in1024.7 mb 0.00 in0.0 mm 0.00 in0.0 mm 0.00 in0.0 mm
10:47 AM 38.6°F3.7°C 23.4°F-4.8°C 54% 2.0 mph NNW3.2 kmh NNW 3.0 mph4.8 kmh 30.26 in1024.7 mb 0.00 in0.0 mm 0.00 in0.0 mm 0.00 in0.0 mm
10:52 AM 38.3°F3.5°C 22.2°F-5.4°C 52% 2.0 mph NW3.2 kmh NW 12.0 mph19.3 kmh 30.26 in1024.7 mb 0.00 in0.0 mm 0.00 in0.0 mm 0.00 in0.0 mm
10:57 AM 38.6°F3.7°C 23.4°F-4.8°C 54% 4.0 mph WNW6.4 kmh WNW 4.0 mph6.4 kmh 30.26 in1024.7 mb 0.00 in0.0 mm 0.00 in0.0 mm 0.00 in0.0 mm
11:02 AM 38.4°F3.6°C 22.3°F-5.4°C 52% Calm Calm 8.0 mph12.9 kmh 30.27 in1025.1 mb 0.00 in0.0 mm 0.00 in0.0 mm 0.00 in0.0 mm
11:07 AM 38.0°F3.3°C 22.4°F-5.3°C 53% 7.0 mph NW11.3 kmh NW 13.0 mph20.9 kmh 30.27 in1025.1 mb 0.00 in0.0 mm 0.00 in0.0 mm 0.00 in0.0 mm
11:12 AM 37.8°F3.2°C 22.2°F-5.4°C 53% 4.0 mph NW6.4 kmh NW 13.0 mph20.9 kmh 30.26 in1024.7 mb 0.00 in0.0 mm 0.00 in0.0 mm 0.00 in0.0 mm
11:17 AM 38.3°F3.5°C 22.7°F-5.2°C 53% 1.0 mph NNW1.6 kmh NNW 13.0 mph20.9 kmh 30.26 in1024.7 mb 0.00 in0.0 mm 0.00 in0.0 mm 0.00 in0.0 mm
11:22 AM 38.8°F3.8°C 22.7°F-5.2°C 52% Calm Calm 13.0 mph20.9 kmh 30.26 in1024.7 mb 0.00 in0.0 mm 0.00 in0.0 mm 0.00 in0.0 mm
11:27 AM 38.8°F3.8°C 22.7°F-5.2°C 52% 5.0 mph N8.0 kmh N 15.0 mph24.1 kmh 30.26 in1024.7 mb 0.00 in0.0 mm 0.00 in0.0 mm 0.00 in0.0 mm
11:32 AM 38.4°F3.6°C 22.8°F-5.1°C 53% Calm Calm 15.0 mph24.1 kmh 30.25 in1024.4 mb 0.00 in0.0 mm 0.00 in0.0 mm 0.00 in0.0 mm
11:37 AM 38.7°F3.7°C 22.6°F-5.2°C 52% 2.0 mph NW3.2 kmh NW 15.0 mph24.1 kmh 30.25 in1024.4 mb 0.00 in0.0 mm 0.00 in0.0 mm 0.00 in0.0 mm
11:42 AM 38.6°F3.7°C 22.1°F-5.5°C 51% 1.0 mph NW1.6 kmh NW 15.0 mph24.1 kmh 30.25 in1024.4 mb 0.00 in0.0 mm 0.00 in0.0 mm 0.00 in0.0 mm
11:47 AM 39.0°F3.9°C 22.9°F-5.1°C 52% 2.0 mph NW3.2 kmh NW 14.0 mph22.5 kmh 30.25 in1024.4 mb 0.00 in0.0 mm 0.00 in0.0 mm 0.00 in0.0 mm
11:52 AM 38.8°F3.8°C 22.7°F-5.2°C 52% Calm Calm 14.0 mph22.5 kmh 30.25 in1024.4 mb 0.00 in0.0 mm 0.00 in0.0 mm 0.00 in0.0 mm
11:57 AM 38.7°F3.7°C 22.6°F-5.2°C 52% 2.0 mph 3.2 kmh 10.0 mph16.1 kmh 30.25 in1024.4 mb 0.00 in0.0 mm 0.00 in0.0 mm 0.00 in0.0 mm
12:02 PM 39.0°F3.9°C 22.4°F-5.3°C 51% 4.0 mph NW6.4 kmh NW 17.0 mph27.4 kmh 30.25 in1024.4 mb 0.00 in0.0 mm 0.00 in0.0 mm 0.00 in0.0 mm
12:07 PM 38.7°F3.7°C 22.1°F-5.5°C 51% 2.0 mph NNW3.2 kmh NNW 17.0 mph27.4 kmh 30.25 in1024.4 mb 0.00 in0.0 mm 0.00 in0.0 mm 0.00 in0.0 mm
12:12 PM 38.7°F3.7°C 22.6°F-5.2°C 52% 3.0 mph NNW4.8 kmh NNW 17.0 mph27.4 kmh 30.25 in1024.4 mb 0.00 in0.0 mm 0.00 in0.0 mm 0.00 in0.0 mm
12:17 PM 39.0°F3.9°C 22.9°F-5.1°C 52% 1.0 mph NW1.6 kmh NW 17.0 mph27.4 kmh 30.25 in1024.4 mb 0.00 in0.0 mm 0.00 in0.0 mm 0.00 in0.0 mm
12:22 PM 39.6°F4.2°C 23.0°F-5.0°C 51% 5.0 mph NW8.0 kmh NW 10.0 mph16.1 kmh 30.24 in1024.0 mb 0.00 in0.0 mm 0.00 in0.0 mm 0.00 in0.0 mm
12:27 PM 39.3°F4.1°C 21.8°F-5.7°C 49% 8.0 mph NW12.9 kmh NW 12.0 mph19.3 kmh 30.24 in1024.0 mb 0.00 in0.0 mm 0.00 in0.0 mm 0.00 in0.0 mm
12:32 PM 39.0°F3.9°C 22.0°F-5.6°C 50% 6.0 mph N9.7 kmh N 12.0 mph19.3 kmh 30.25 in1024.4 mb 0.00 in0.0 mm 0.00 in0.0 mm 0.00 in0.0 mm
12:37 PM 39.0°F3.9°C 22.0°F-5.6°C 50% 7.0 mph NNW11.3 kmh NNW 12.0 mph19.3 kmh 30.24 in1024.0 mb 0.00 in0.0 mm 0.00 in0.0 mm 0.00 in0.0 mm
12:42 PM 39.7°F4.3°C 21.6°F-5.8°C 48% 6.0 mph NW9.7 kmh NW 12.0 mph19.3 kmh 30.24 in1024.0 mb 0.00 in0.0 mm 0.00 in0.0 mm 0.00 in0.0 mm
12:47 PM 39.8°F4.3°C 21.2°F-6.0°C 47% 13.0 mph NNW20.9 kmh NNW 14.0 mph22.5 kmh 30.24 in1024.0 mb 0.00 in0.0 mm 0.00 in0.0 mm 0.00 in0.0 mm
12:52 PM 39.6°F4.2°C 21.0°F-6.1°C 47% 6.0 mph NW9.7 kmh NW 16.0 mph25.7 kmh 30.24 in1024.0 mb 0.00 in0.0 mm 0.00 in0.0 mm 0.00 in0.0 mm
12:57 PM 39.5°F4.2°C 21.5°F-5.8°C 48% 4.0 mph NW6.4 kmh NW 16.0 mph25.7 kmh 30.24 in1024.0 mb 0.00 in0.0 mm 0.00 in0.0 mm 0.00 in0.0 mm
01:02 PM 39.5°F4.2°C 21.5°F-5.8°C 48% 6.0 mph NW9.7 kmh NW 16.0 mph25.7 kmh 30.24 in1024.0 mb 0.00 in0.0 mm 0.00 in0.0 mm 0.00 in0.0 mm
01:07 PM 39.9°F4.4°C 22.8°F-5.1°C 50% Calm Calm 16.0 mph25.7 kmh 30.24 in1024.0 mb 0.00 in0.0 mm 0.00 in0.0 mm 0.00 in0.0 mm
01:12 PM 40.0°F4.4°C 21.9°F-5.6°C 48% 4.0 mph NNW6.4 kmh NNW 12.0 mph19.3 kmh 30.24 in1024.0 mb 0.00 in0.0 mm 0.00 in0.0 mm 0.00 in0.0 mm
01:17 PM 39.8°F4.3°C 22.2°F-5.4°C 49% 4.0 mph N6.4 kmh N 12.0 mph19.3 kmh 30.24 in1024.0 mb 0.00 in0.0 mm 0.00 in0.0 mm 0.00 in0.0 mm
01:22 PM 40.3°F4.6°C 22.2°F-5.4°C 48% 2.0 mph NW3.2 kmh NW 12.0 mph19.3 kmh 30.24 in1024.0 mb 0.00 in0.0 mm 0.00 in0.0 mm 0.00 in0.0 mm
01:27 PM 39.7°F4.3°C 21.6°F-5.8°C 48% 8.0 mph NW12.9 kmh NW 12.0 mph19.3 kmh 30.24 in1024.0 mb 0.00 in0.0 mm 0.00 in0.0 mm 0.00 in0.0 mm
01:32 PM 39.4°F4.1°C 21.8°F-5.7°C 49% 2.0 mph N3.2 kmh N 13.0 mph20.9 kmh 30.24 in1024.0 mb 0.00 in0.0 mm 0.00 in0.0 mm 0.00 in0.0 mm
01:37 PM 40.2°F4.6°C 22.1°F-5.5°C 48% 4.0 mph NNW6.4 kmh NNW 13.0 mph20.9 kmh 30.23 in1023.7 mb 0.00 in0.0 mm 0.00 in0.0 mm 0.00 in0.0 mm
01:42 PM 40.3°F4.6°C 21.2°F-6.0°C 46% 3.0 mph N4.8 kmh N 13.0 mph20.9 kmh 30.24 in1024.0 mb 0.00 in0.0 mm 0.00 in0.0 mm 0.00 in0.0 mm
01:47 PM 39.9°F4.4°C 21.3°F-5.9°C 47% 5.0 mph NNW8.0 kmh NNW 13.0 mph20.9 kmh 30.24 in1024.0 mb 0.00 in0.0 mm 0.00 in0.0 mm 0.00 in0.0 mm
01:52 PM 39.5°F4.2°C 21.5°F-5.8°C 48% 6.0 mph NW9.7 kmh NW 12.0 mph19.3 kmh 30.24 in1024.0 mb 0.00 in0.0 mm 0.00 in0.0 mm 0.00 in0.0 mm
01:57 PM 39.4°F4.1°C 21.8°F-5.7°C 49% 8.0 mph NW12.9 kmh NW 13.0 mph20.9 kmh 30.24 in1024.0 mb 0.00 in0.0 mm 0.00 in0.0 mm 0.00 in0.0 mm
02:02 PM 39.9°F4.4°C 21.8°F-5.7°C 48% Calm Calm 13.0 mph20.9 kmh 30.23 in1023.7 mb 0.00 in0.0 mm 0.00 in0.0 mm 0.00 in0.0 mm
02:07 PM 40.0°F4.4°C 21.4°F-5.9°C 47% 10.0 mph N16.1 kmh N 14.0 mph22.5 kmh 30.23 in1023.7 mb 0.00 in0.0 mm 0.00 in0.0 mm 0.00 in0.0 mm
02:12 PM 40.2°F4.6°C 21.6°F-5.8°C 47% 2.0 mph N3.2 kmh N 14.0 mph22.5 kmh 30.24 in1024.0 mb 0.00 in0.0 mm 0.00 in0.0 mm 0.00 in0.0 mm
02:17 PM 40.7°F4.8°C 22.1°F-5.5°C 47% 1.0 mph NNW1.6 kmh NNW 14.0 mph22.5 kmh 30.23 in1023.7 mb 0.00 in0.0 mm 0.00 in0.0 mm 0.00 in0.0 mm
02:22 PM 41.2°F5.1°C 22.5°F-5.3°C 47% 4.0 mph NW6.4 kmh NW 14.0 mph22.5 kmh 30.24 in1024.0 mb 0.00 in0.0 mm 0.00 in0.0 mm 0.00 in0.0 mm
02:27 PM 40.2°F4.6°C 21.6°F-5.8°C 47% 8.0 mph NW12.9 kmh NW 11.0 mph17.7 kmh 30.24 in1024.0 mb 0.00 in0.0 mm 0.00 in0.0 mm 0.00 in0.0 mm
02:32 PM 39.8°F4.3°C 22.2°F-5.4°C 49% 1.0 mph NW1.6 kmh NW 2.0 mph3.2 kmh 30.24 in1024.0 mb 0.00 in0.0 mm 0.00 in0.0 mm 0.00 in0.0 mm
02:37 PM 39.7°F4.3°C 21.6°F-5.8°C 48% 4.0 mph NW6.4 kmh NW 13.0 mph20.9 kmh 30.24 in1024.0 mb 0.00 in0.0 mm 0.00 in0.0 mm 0.00 in0.0 mm
02:42 PM 40.0°F4.4°C 22.4°F-5.3°C 49% Calm Calm 7.0 mph11.3 kmh 30.24 in1024.0 mb 0.00 in0.0 mm 0.00 in0.0 mm 0.00 in0.0 mm
02:47 PM 40.3°F4.6°C 22.7°F-5.2°C 49% 3.0 mph WNW4.8 kmh WNW 14.0 mph22.5 kmh 30.24 in1024.0 mb 0.00 in0.0 mm 0.00 in0.0 mm 0.00 in0.0 mm
02:52 PM 40.2°F4.6°C 22.1°F-5.5°C 48% 2.0 mph N3.2 kmh N 14.0 mph22.5 kmh 30.24 in1024.0 mb 0.00 in0.0 mm 0.00 in0.0 mm 0.00 in0.0 mm
02:57 PM 40.1°F4.5°C 22.5°F-5.3°C 49% 4.0 mph NNE6.4 kmh NNE 14.0 mph22.5 kmh 30.24 in1024.0 mb 0.00 in0.0 mm 0.00 in0.0 mm 0.00 in0.0 mm
03:02 PM 40.2°F4.6°C 22.6°F-5.2°C 49% Calm Calm 14.0 mph22.5 kmh 30.25 in1024.4 mb 0.00 in0.0 mm 0.00 in0.0 mm 0.00 in0.0 mm
03:07 PM 40.3°F4.6°C 22.7°F-5.2°C 49% 11.0 mph NNW17.7 kmh NNW 11.0 mph17.7 kmh 30.25 in1024.4 mb 0.00 in0.0 mm 0.00 in0.0 mm 0.00 in0.0 mm
03:12 PM 39.8°F4.3°C 21.7°F-5.7°C 48% Calm Calm 11.0 mph17.7 kmh 30.25 in1024.4 mb 0.00 in0.0 mm 0.00 in0.0 mm 0.00 in0.0 mm
03:17 PM 39.7°F4.3°C 21.6°F-5.8°C 48% 1.0 mph NNW1.6 kmh NNW 11.0 mph17.7 kmh 30.25 in1024.4 mb 0.00 in0.0 mm 0.00 in0.0 mm 0.00 in0.0 mm
03:22 PM 39.8°F4.3°C 22.2°F-5.4°C 49% 7.0 mph N11.3 kmh N 11.0 mph17.7 kmh 30.25 in1024.4 mb 0.00 in0.0 mm 0.00 in0.0 mm 0.00 in0.0 mm
03:27 PM 39.9°F4.4°C 21.3°F-5.9°C 47% 2.0 mph NNW3.2 kmh NNW 10.0 mph16.1 kmh 30.25 in1024.4 mb 0.00 in0.0 mm 0.00 in0.0 mm 0.00 in0.0 mm
03:32 PM 40.0°F4.4°C 21.4°F-5.9°C 47% 3.0 mph NNW4.8 kmh NNW 10.0 mph16.1 kmh 30.25 in1024.4 mb 0.00 in0.0 mm 0.00 in0.0 mm 0.00 in0.0 mm
03:37 PM 40.1°F4.5°C 21.5°F-5.8°C 47% 2.0 mph NW3.2 kmh NW 9.0 mph14.5 kmh 30.25 in1024.4 mb 0.00 in0.0 mm 0.00 in0.0 mm 0.00 in0.0 mm
03:42 PM 39.6°F4.2°C 21.0°F-6.1°C 47% Calm Calm 10.0 mph16.1 kmh 30.25 in1024.4 mb 0.00 in0.0 mm 0.00 in0.0 mm 0.00 in0.0 mm
03:47 PM 39.5°F4.2°C 21.9°F-5.6°C 49% 2.0 mph WNW3.2 kmh WNW 10.0 mph16.1 kmh 30.25 in1024.4 mb 0.00 in0.0 mm 0.00 in0.0 mm 0.00 in0.0 mm
03:52 PM 39.3°F4.1°C 21.8°F-5.7°C 49% 1.0 mph NW1.6 kmh NW 10.0 mph16.1 kmh 30.25 in1024.4 mb 0.00 in0.0 mm 0.00 in0.0 mm 0.00 in0.0 mm
03:57 PM 39.3°F4.1°C 21.8°F-5.7°C 49% Calm Calm 10.0 mph16.1 kmh 30.25 in1024.4 mb 0.00 in0.0 mm 0.00 in0.0 mm 0.00 in0.0 mm
04:02 PM 39.3°F4.1°C 21.8°F-5.7°C 49% 2.0 mph NW3.2 kmh NW 8.0 mph12.9 kmh 30.25 in1024.4 mb 0.00 in0.0 mm 0.00 in0.0 mm 0.00 in0.0 mm
04:07 PM 39.2°F4.0°C 21.7°F-5.7°C 49% 2.0 mph NW3.2 kmh NW 11.0 mph17.7 kmh 30.26 in1024.7 mb 0.00 in0.0 mm 0.00 in0.0 mm 0.00 in0.0 mm
04:12 PM 39.2°F4.0°C 21.7°F-5.7°C 49% 5.0 mph NNW8.0 kmh NNW 11.0 mph17.7 kmh 30.26 in1024.7 mb 0.00 in0.0 mm 0.00 in0.0 mm 0.00 in0.0 mm
04:17 PM 39.2°F4.0°C 21.7°F-5.7°C 49% Calm Calm 11.0 mph17.7 kmh 30.26 in1024.7 mb 0.00 in0.0 mm 0.00 in0.0 mm 0.00 in0.0 mm
04:22 PM 39.1°F3.9°C 21.6°F-5.8°C 49% 1.0 mph WNW1.6 kmh WNW 11.0 mph17.7 kmh 30.26 in1024.7 mb 0.00 in0.0 mm 0.00 in0.0 mm 0.00 in0.0 mm
04:27 PM 39.1°F3.9°C 21.6°F-5.8°C 49% 2.0 mph N3.2 kmh N 10.0 mph16.1 kmh 30.26 in1024.7 mb 0.00 in0.0 mm 0.00 in0.0 mm 0.00 in0.0 mm
04:32 PM 38.9°F3.8°C 21.9°F-5.6°C 50% 6.0 mph WNW9.7 kmh WNW 10.0 mph16.1 kmh 30.26 in1024.7 mb 0.00 in0.0 mm 0.00 in0.0 mm 0.00 in0.0 mm
04:37 PM 38.8°F3.8°C 21.8°F-5.7°C 50% 1.0 mph NNW1.6 kmh NNW 10.0 mph16.1 kmh 30.26 in1024.7 mb 0.00 in0.0 mm 0.00 in0.0 mm 0.00 in0.0 mm
04:42 PM 38.7°F3.7°C 22.1°F-5.5°C 51% Calm Calm 10.0 mph16.1 kmh 30.26 in1024.7 mb 0.00 in0.0 mm 0.00 in0.0 mm 0.00 in0.0 mm
04:47 PM 38.6°F3.7°C 21.6°F-5.8°C 50% 1.0 mph NW1.6 kmh NW 10.0 mph16.1 kmh 30.26 in1024.7 mb 0.00 in0.0 mm 0.00 in0.0 mm 0.00 in0.0 mm
04:52 PM 38.6°F3.7°C 21.6°F-5.8°C 50% 2.0 mph NW3.2 kmh NW 10.0 mph16.1 kmh 30.27 in1025.1 mb 0.00 in0.0 mm 0.00 in0.0 mm 0.00 in0.0 mm
04:57 PM 38.4°F3.6°C 21.9°F-5.6°C 51% 2.0 mph NW3.2 kmh NW 10.0 mph16.1 kmh 30.27 in1025.1 mb 0.00 in0.0 mm 0.00 in0.0 mm 0.00 in0.0 mm
05:02 PM 38.3°F3.5°C 21.8°F-5.7°C 51% 1.0 mph NW1.6 kmh NW 10.0 mph16.1 kmh 30.27 in1025.1 mb 0.00 in0.0 mm 0.00 in0.0 mm 0.00 in0.0 mm
05:07 PM 38.3°F3.5°C 22.2°F-5.4°C 52% Calm Calm -- 30.27 in1025.1 mb 0.00 in0.0 mm 0.00 in0.0 mm 0.00 in0.0 mm
05:12 PM 38.2°F3.4°C 22.6°F-5.2°C 53% Calm Calm 6.0 mph9.7 kmh 30.28 in1025.4 mb 0.00 in0.0 mm 0.00 in0.0 mm 0.00 in0.0 mm
05:17 PM 38.0°F3.3°C 22.0°F-5.6°C 52% Calm Calm 6.0 mph9.7 kmh 30.28 in1025.4 mb 0.00 in0.0 mm 0.00 in0.0 mm 0.00 in0.0 mm
05:22 PM 38.0°F3.3°C 22.0°F-5.6°C 52% 2.0 mph NNW3.2 kmh NNW 2.0 mph3.2 kmh 30.28 in1025.4 mb 0.00 in0.0 mm 0.00 in0.0 mm 0.00 in0.0 mm
05:27 PM 37.9°F3.3°C 21.9°F-5.6°C 52% Calm Calm 4.0 mph6.4 kmh 30.28 in1025.4 mb 0.00 in0.0 mm 0.00 in0.0 mm 0.00 in0.0 mm
05:32 PM 37.8°F3.2°C 21.8°F-5.7°C 52% Calm Calm 5.0 mph8.0 kmh 30.28 in1025.4 mb 0.00 in0.0 mm 0.00 in0.0 mm 0.00 in0.0 mm
05:37 PM 37.8°F3.2°C 21.3°F-5.9°C 51% Calm Calm 7.0 mph11.3 kmh 30.28 in1025.4 mb 0.00 in0.0 mm 0.00 in0.0 mm 0.00 in0.0 mm
05:42 PM 37.7°F3.2°C 21.7°F-5.7°C 52% Calm Calm 3.0 mph4.8 kmh 30.29 in1025.7 mb 0.00 in0.0 mm 0.00 in0.0 mm 0.00 in0.0 mm
05:47 PM 37.6°F3.1°C 21.6°F-5.8°C 52% 2.0 mph NW3.2 kmh NW 6.0 mph9.7 kmh 30.29 in1025.7 mb 0.00 in0.0 mm 0.00 in0.0 mm 0.00 in0.0 mm
05:52 PM 37.5°F3.1°C 21.9°F-5.6°C 53% Calm Calm 3.0 mph4.8 kmh 30.29 in1025.7 mb 0.00 in0.0 mm 0.00 in0.0 mm 0.00 in0.0 mm
05:57 PM 37.4°F3.0°C 21.9°F-5.6°C 53% 4.0 mph NNW6.4 kmh NNW 6.0 mph9.7 kmh 30.29 in1025.7 mb 0.00 in0.0 mm 0.00 in0.0 mm 0.00 in0.0 mm
06:02 PM 37.3°F2.9°C 21.8°F-5.7°C 53% 6.0 mph NNW9.7 kmh NNW 8.0 mph12.9 kmh 30.30 in1026.1 mb 0.00 in0.0 mm 0.00 in0.0 mm 0.00 in0.0 mm
06:07 PM 37.3°F2.9°C 21.8°F-5.7°C 53% 1.0 mph NNW1.6 kmh NNW 5.0 mph8.0 kmh 30.30 in1026.1 mb 0.00 in0.0 mm 0.00 in0.0 mm 0.00 in0.0 mm
06:12 PM 37.2°F2.9°C 21.7°F-5.7°C 53% Calm Calm 5.0 mph8.0 kmh 30.30 in1026.1 mb 0.00 in0.0 mm 0.00 in0.0 mm 0.00 in0.0 mm
06:17 PM 37.2°F2.9°C 21.7°F-5.7°C 53% 2.0 mph NNW3.2 kmh NNW 8.0 mph12.9 kmh 30.30 in1026.1 mb 0.00 in0.0 mm 0.00 in0.0 mm 0.00 in0.0 mm
06:22 PM 37.1°F2.8°C 21.6°F-5.8°C 53% Calm Calm 8.0 mph12.9 kmh 30.30 in1026.1 mb 0.00 in0.0 mm 0.00 in0.0 mm 0.00 in0.0 mm
06:27 PM 37.0°F2.8°C 21.9°F-5.6°C 54% Calm Calm 3.0 mph4.8 kmh 30.30 in1026.1 mb 0.00 in0.0 mm 0.00 in0.0 mm 0.00 in0.0 mm
06:32 PM 36.9°F2.7°C 21.8°F-5.7°C 54% Calm Calm 4.0 mph6.4 kmh 30.31 in1026.4 mb 0.00 in0.0 mm 0.00 in0.0 mm 0.00 in0.0 mm
06:37 PM 36.9°F2.7°C 22.3°F-5.4°C 55% Calm Calm -- 30.31 in1026.4 mb 0.00 in0.0 mm 0.00 in0.0 mm 0.00 in0.0 mm
06:42 PM 36.8°F2.7°C 22.2°F-5.4°C 55% Calm Calm 4.0 mph6.4 kmh 30.31 in1026.4 mb 0.00 in0.0 mm 0.00 in0.0 mm 0.00 in0.0 mm
06:47 PM 36.8°F2.7°C 22.2°F-5.4°C 55% Calm Calm -- 30.32 in1026.8 mb 0.00 in0.0 mm 0.00 in0.0 mm 0.00 in0.0 mm
06:52 PM 36.8°F2.7°C 22.2°F-5.4°C 55% Calm Calm -- 30.32 in1026.8 mb 0.00 in0.0 mm 0.00 in0.0 mm 0.00 in0.0 mm
06:57 PM 36.8°F2.7°C 22.2°F-5.4°C 55% 4.0 mph N6.4 kmh N 8.0 mph12.9 kmh 30.32 in1026.8 mb 0.00 in0.0 mm 0.00 in0.0 mm 0.00 in0.0 mm
07:02 PM 36.8°F2.7°C 22.2°F-5.4°C 55% Calm Calm 8.0 mph12.9 kmh 30.32 in1026.8 mb 0.00 in0.0 mm 0.00 in0.0 mm 0.00 in0.0 mm
07:07 PM 36.8°F2.7°C 22.2°F-5.4°C 55% 1.0 mph N1.6 kmh N 8.0 mph12.9 kmh 30.32 in1026.8 mb 0.00 in0.0 mm 0.00 in0.0 mm 0.00 in0.0 mm
07:12 PM 36.7°F2.6°C 22.1°F-5.5°C 55% 1.0 mph NW1.6 kmh NW 8.0 mph12.9 kmh 30.32 in1026.8 mb 0.00 in0.0 mm 0.00 in0.0 mm 0.00 in0.0 mm
07:17 PM 36.7°F2.6°C 22.5°F-5.3°C 56% 2.0 mph NNW3.2 kmh NNW 4.0 mph6.4 kmh 30.32 in1026.8 mb 0.00 in0.0 mm 0.00 in0.0 mm 0.00 in0.0 mm
07:22 PM 36.6°F2.6°C 22.4°F-5.3°C 56% Calm Calm 5.0 mph8.0 kmh 30.32 in1026.8 mb 0.00 in0.0 mm 0.00 in0.0 mm 0.00 in0.0 mm
07:27 PM 36.5°F2.5°C 22.3°F-5.4°C 56% 4.0 mph NNW6.4 kmh NNW 5.0 mph8.0 kmh 30.32 in1026.8 mb 0.00 in0.0 mm 0.00 in0.0 mm 0.00 in0.0 mm
07:32 PM 36.4°F2.4°C 22.2°F-5.4°C 56% Calm Calm 6.0 mph9.7 kmh 30.32 in1026.8 mb 0.00 in0.0 mm 0.00 in0.0 mm 0.00 in0.0 mm
07:37 PM 36.4°F2.4°C 22.2°F-5.4°C 56% Calm Calm -- 30.32 in1026.8 mb 0.00 in0.0 mm 0.00 in0.0 mm 0.00 in0.0 mm
07:42 PM 36.3°F2.4°C 22.5°F-5.3°C 57% Calm Calm 4.0 mph6.4 kmh 30.33 in1027.1 mb 0.00 in0.0 mm 0.00 in0.0 mm 0.00 in0.0 mm
07:47 PM 36.3°F2.4°C 22.1°F-5.5°C 56% 2.0 mph WNW3.2 kmh WNW 3.0 mph4.8 kmh 30.32 in1026.8 mb 0.00 in0.0 mm 0.00 in0.0 mm 0.00 in0.0 mm
07:52 PM 36.2°F2.3°C 22.0°F-5.6°C 56% 2.0 mph WSW3.2 kmh WSW 4.0 mph6.4 kmh 30.32 in1026.8 mb 0.00 in0.0 mm 0.00 in0.0 mm 0.00 in0.0 mm
07:57 PM 36.2°F2.3°C 22.0°F-5.6°C 56% 2.0 mph NW3.2 kmh NW 3.0 mph4.8 kmh 30.33 in1027.1 mb 0.00 in0.0 mm 0.00 in0.0 mm 0.00 in0.0 mm
08:02 PM 36.1°F2.3°C 21.9°F-5.6°C 56% Calm Calm 3.0 mph4.8 kmh 30.33 in1027.1 mb 0.00 in0.0 mm 0.00 in0.0 mm 0.00 in0.0 mm
08:07 PM 36.1°F2.3°C 21.9°F-5.6°C 56% Calm Calm 4.0 mph6.4 kmh 30.33 in1027.1 mb 0.00 in0.0 mm 0.00 in0.0 mm 0.00 in0.0 mm
08:12 PM 35.9°F2.2°C 22.2°F-5.4°C 57% Calm Calm 4.0 mph6.4 kmh 30.33 in1027.1 mb 0.00 in0.0 mm 0.00 in0.0 mm 0.00 in0.0 mm
08:17 PM 35.9°F2.2°C 21.8°F-5.7°C 56% 1.0 mph NNW1.6 kmh NNW 6.0 mph9.7 kmh 30.33 in1027.1 mb 0.00 in0.0 mm 0.00 in0.0 mm 0.00 in0.0 mm
08:22 PM 35.8°F2.1°C 21.7°F-5.7°C 56% Calm Calm 1.0 mph1.6 kmh 30.33 in1027.1 mb 0.00 in0.0 mm 0.00 in0.0 mm 0.00 in0.0 mm
08:27 PM 35.7°F2.1°C 21.6°F-5.8°C 56% 2.0 mph NW3.2 kmh NW 4.0 mph6.4 kmh 30.34 in1027.4 mb 0.00 in0.0 mm 0.00 in0.0 mm 0.00 in0.0 mm
08:32 PM 35.7°F2.1°C 21.6°F-5.8°C 56% 2.0 mph NW3.2 kmh NW 4.0 mph6.4 kmh 30.33 in1027.1 mb 0.00 in0.0 mm 0.00 in0.0 mm 0.00 in0.0 mm
08:37 PM 35.5°F1.9°C 21.4°F-5.9°C 56% 1.0 mph NW1.6 kmh NW 6.0 mph9.7 kmh 30.34 in1027.4 mb 0.00 in0.0 mm 0.00 in0.0 mm 0.00 in0.0 mm
08:42 PM 35.5°F1.9°C 21.4°F-5.9°C 56% Calm Calm -- 30.34 in1027.4 mb 0.00 in0.0 mm 0.00 in0.0 mm 0.00 in0.0 mm
08:47 PM 35.4°F1.9°C 21.7°F-5.7°C 57% Calm Calm -- 30.34 in1027.4 mb 0.00 in0.0 mm 0.00 in0.0 mm 0.00 in0.0 mm
08:52 PM 35.4°F1.9°C 21.3°F-5.9°C 56% Calm Calm 3.0 mph4.8 kmh 30.34 in1027.4 mb 0.00 in0.0 mm 0.00 in0.0 mm 0.00 in0.0 mm
08:57 PM 35.3°F1.8°C 21.2°F-6.0°C 56% 3.0 mph NW4.8 kmh NW 5.0 mph8.0 kmh 30.34 in1027.4 mb 0.00 in0.0 mm 0.00 in0.0 mm 0.00 in0.0 mm
09:02 PM 35.3°F1.8°C 21.2°F-6.0°C 56% Calm Calm 5.0 mph8.0 kmh 30.34 in1027.4 mb 0.00 in0.0 mm 0.00 in0.0 mm 0.00 in0.0 mm
09:07 PM 35.2°F1.8°C 21.5°F-5.8°C 57% Calm Calm -- 30.35 in1027.8 mb 0.00 in0.0 mm 0.00 in0.0 mm 0.00 in0.0 mm
09:12 PM 35.2°F1.8°C 21.5°F-5.8°C 57% Calm Calm -- 30.35 in1027.8 mb 0.00 in0.0 mm 0.00 in0.0 mm 0.00 in0.0 mm
09:17 PM 35.1°F1.7°C 21.0°F-6.1°C 56% Calm Calm -- 30.35 in1027.8 mb 0.00 in0.0 mm 0.00 in0.0 mm 0.00 in0.0 mm
09:22 PM 35.0°F1.7°C 20.9°F-6.2°C 56% Calm Calm 6.0 mph9.7 kmh 30.35 in1027.8 mb 0.00 in0.0 mm 0.00 in0.0 mm 0.00 in0.0 mm
09:27 PM 35.0°F1.7°C 21.3°F-5.9°C 57% 2.0 mph NNW3.2 kmh NNW 4.0 mph6.4 kmh 30.35 in1027.8 mb 0.00 in0.0 mm 0.00 in0.0 mm 0.00 in0.0 mm
09:32 PM 35.0°F1.7°C 20.9°F-6.2°C 56% Calm Calm 1.0 mph1.6 kmh 30.36 in1028.1 mb 0.00 in0.0 mm 0.00 in0.0 mm 0.00 in0.0 mm
09:37 PM 34.9°F1.6°C 20.8°F-6.2°C 56% Calm Calm 1.0 mph1.6 kmh 30.36 in1028.1 mb 0.00 in0.0 mm 0.00 in0.0 mm 0.00 in0.0 mm
09:42 PM 34.8°F1.6°C 21.1°F-6.1°C 57% Calm Calm 2.0 mph3.2 kmh 30.35 in1027.8 mb 0.00 in0.0 mm 0.00 in0.0 mm 0.00 in0.0 mm
09:47 PM 34.7°F1.5°C 21.0°F-6.1°C 57% Calm Calm 2.0 mph3.2 kmh 30.35 in1027.8 mb 0.00 in0.0 mm 0.00 in0.0 mm 0.00 in0.0 mm
09:52 PM 34.7°F1.5°C 21.0°F-6.1°C 57% Calm Calm -- 30.36 in1028.1 mb 0.00 in0.0 mm 0.00 in0.0 mm 0.00 in0.0 mm
09:57 PM 34.6°F1.4°C 21.4°F-5.9°C 58% Calm Calm -- 30.36 in1028.1 mb 0.00 in0.0 mm 0.00 in0.0 mm 0.00 in0.0 mm
10:02 PM 34.6°F1.4°C 21.0°F-6.1°C 57% 1.0 mph NNW1.6 kmh NNW 3.0 mph4.8 kmh 30.36 in1028.1 mb 0.00 in0.0 mm 0.00 in0.0 mm 0.00 in0.0 mm
10:07 PM 34.6°F1.4°C 21.0°F-6.1°C 57% Calm Calm 6.0 mph9.7 kmh 30.35 in1027.8 mb 0.00 in0.0 mm 0.00 in0.0 mm 0.00 in0.0 mm
10:12 PM 34.5°F1.4°C 20.9°F-6.2°C 57% Calm Calm 1.0 mph1.6 kmh 30.36 in1028.1 mb 0.00 in0.0 mm 0.00 in0.0 mm 0.00 in0.0 mm
10:17 PM 34.4°F1.3°C 20.8°F-6.2°C 57% Calm Calm 2.0 mph3.2 kmh 30.35 in1027.8 mb 0.00 in0.0 mm 0.00 in0.0 mm 0.00 in0.0 mm
10:22 PM 34.3°F1.3°C 20.7°F-6.3°C 57% 2.0 mph N3.2 kmh N 4.0 mph6.4 kmh 30.35 in1027.8 mb 0.00 in0.0 mm 0.00 in0.0 mm 0.00 in0.0 mm
10:27 PM 34.2°F1.2°C 20.6°F-6.3°C 57% 1.0 mph N1.6 kmh N 4.0 mph6.4 kmh 30.35 in1027.8 mb 0.00 in0.0 mm 0.00 in0.0 mm 0.00 in0.0 mm
10:32 PM 34.1°F1.2°C 20.5°F-6.4°C 57% Calm Calm 5.0 mph8.0 kmh 30.35 in1027.8 mb 0.00 in0.0 mm 0.00 in0.0 mm 0.00 in0.0 mm
10:37 PM 34.0°F1.1°C 20.8°F-6.2°C 58% Calm Calm 5.0 mph8.0 kmh 30.35 in1027.8 mb 0.00 in0.0 mm 0.00 in0.0 mm 0.00 in0.0 mm
10:42 PM 33.9°F1.1°C 20.7°F-6.3°C 58% Calm Calm 7.0 mph11.3 kmh 30.35 in1027.8 mb 0.00 in0.0 mm 0.00 in0.0 mm 0.00 in0.0 mm
10:47 PM 33.7°F0.9°C 20.9°F-6.2°C 59% Calm Calm -- 30.34 in1027.4 mb 0.00 in0.0 mm 0.00 in0.0 mm 0.00 in0.0 mm
10:52 PM 33.7°F0.9°C 21.3°F-5.9°C 60% Calm Calm -- 30.35 in1027.8 mb 0.00 in0.0 mm 0.00 in0.0 mm 0.00 in0.0 mm
10:57 PM 33.4°F0.8°C 21.0°F-6.1°C 60% Calm Calm -- 30.34 in1027.4 mb 0.00 in0.0 mm 0.00 in0.0 mm 0.00 in0.0 mm
11:02 PM 33.3°F0.7°C 20.9°F-6.2°C 60% Calm Calm -- 30.35 in1027.8 mb 0.00 in0.0 mm 0.00 in0.0 mm 0.00 in0.0 mm
11:07 PM 33.2°F0.7°C 21.2°F-6.0°C 61% Calm Calm -- 30.35 in1027.8 mb 0.00 in0.0 mm 0.00 in0.0 mm 0.00 in0.0 mm
11:12 PM 33.1°F0.6°C 21.1°F-6.1°C 61% Calm Calm -- 30.34 in1027.4 mb 0.00 in0.0 mm 0.00 in0.0 mm 0.00 in0.0 mm
11:17 PM 33.0°F0.6°C 21.4°F-5.9°C 62% Calm Calm 3.0 mph4.8 kmh 30.34 in1027.4 mb 0.00 in0.0 mm 0.00 in0.0 mm 0.00 in0.0 mm
11:22 PM 32.8°F0.4°C 21.2°F-6.0°C 62% Calm Calm -- 30.34 in1027.4 mb 0.00 in0.0 mm 0.00 in0.0 mm 0.00 in0.0 mm
11:27 PM 32.7°F0.4°C 21.1°F-6.1°C 62% Calm Calm 2.0 mph3.2 kmh 30.34 in1027.4 mb 0.00 in0.0 mm 0.00 in0.0 mm 0.00 in0.0 mm
11:32 PM 32.6°F0.3°C 21.4°F-5.9°C 63% Calm Calm -- 30.34 in1027.4 mb 0.00 in0.0 mm 0.00 in0.0 mm 0.00 in0.0 mm
11:37 PM 32.5°F0.3°C 21.3°F-5.9°C 63% Calm Calm -- 30.34 in1027.4 mb 0.00 in0.0 mm 0.00 in0.0 mm 0.00 in0.0 mm
11:42 PM 32.4°F0.2°C 21.2°F-6.0°C 63% Calm Calm -- 30.34 in1027.4 mb 0.00 in0.0 mm 0.00 in0.0 mm 0.00 in0.0 mm
11:47 PM 32.3°F0.2°C 21.5°F-5.8°C 64% Calm Calm -- 30.34 in1027.4 mb 0.00 in0.0 mm 0.00 in0.0 mm 0.00 in0.0 mm
11:52 PM 32.2°F0.1°C 21.4°F-5.9°C 64% Calm Calm -- 30.34 in1027.4 mb 0.00 in0.0 mm 0.00 in0.0 mm 0.00 in0.0 mm
11:57 PM 32.2°F0.1°C 21.4°F-5.9°C 64% Calm Calm -- 30.34 in1027.4 mb 0.00 in0.0 mm 0.00 in0.0 mm 0.00 in0.0 mm